MV Finola — OULQ2 — position and weather

sailwx.info

Track history (hours):
 
Tides and Currents Weather Stations Pressure Air Temp Water Temp Dewpoint Dewpoint Depression Visibility Wind Speed Wind Dir Waves Ship Positions

MV Finola

Last reported at 2015-May-22 17:33 UTC. Time now 2015-May-29 02:16 UTC.
Position S 12°10' E 130°27'.

Length 86 m; draft 3.6 m.

Type: Cargo ship. MMSI: 219483000.

Date/timePositionNaut miles runAvg speedWind from/ knotsBaromVisibWave heightAir tempDewpointWater temp
2015-May-22 17:33S 12°10' E 130°27'1312.7
2015-May-22 16:33S 12°17' E 130°38'1212.5
2015-May-22 15:34S 12°26' E 130°47'7 7.1
2015-May-22 14:33S 12°30' E 130°53'0 0.0
2015-May-22 13:33S 12°30' E 130°53'0 0.0
2015-May-22 12:33S 12°30' E 130°53'0 0.0
2015-May-22 11:33S 12°30' E 130°53'0 0.0
2015-May-22 10:33S 12°30' E 130°53'0 0.0
2015-May-22 09:33S 12°30' E 130°53'0 0.0
2015-May-22 08:33S 12°30' E 130°53'0 0.0
2015-May-22 07:33S 12°30' E 130°53'0 0.0
2015-May-22 06:33S 12°30' E 130°53'0 0.0
2015-May-22 05:33S 12°30' E 130°53'0 0.0
2015-May-22 04:33S 12°30' E 130°53'0 0.0
2015-May-22 03:33S 12°30' E 130°53'0 0.0
2015-May-22 02:33S 12°30' E 130°53'0 0.0
2015-May-22 01:33S 12°30' E 130°53'0 0.0
2015-May-22 00:33S 12°30' E 130°53'0 0.0
2015-May-21 23:33S 12°30' E 130°53'0 0.0
2015-May-21 22:33S 12°30' E 130°53'3 2.7
2015-May-21 21:33S 12°29' E 130°50'8 8.1
2015-May-21 20:33S 12°23' E 130°45'5 5.5
2015-May-21 19:33S 12°19' E 130°40'  
Track history (hours):
 
Tides and Currents Weather Stations Pressure Air Temp Water Temp Dewpoint Dewpoint Depression Visibility Wind Speed Wind Dir Waves Ship Positions

MV Finola

Last reported at 2015-May-22 17:33 UTC. Time now 2015-May-29 02:16 UTC.
Position S 12°10' E 130°27'.

Length 86 m; draft 3.6 m.

Type: Cargo ship. MMSI: 219483000.

Date/timePositionNaut miles runAvg speedWind from/ knotsBaromVisibWave heightAir tempDewpointWater temp
2015-May-22 17:33S 12°10' E 130°27'1312.7
2015-May-22 16:33S 12°17' E 130°38'1212.5
2015-May-22 15:34S 12°26' E 130°47'7 7.1
2015-May-22 14:33S 12°30' E 130°53'0 0.0
2015-May-22 13:33S 12°30' E 130°53'0 0.0
2015-May-22 12:33S 12°30' E 130°53'0 0.0
2015-May-22 11:33S 12°30' E 130°53'0 0.0
2015-May-22 10:33S 12°30' E 130°53'0 0.0
2015-May-22 09:33S 12°30' E 130°53'0 0.0
2015-May-22 08:33S 12°30' E 130°53'0 0.0
2015-May-22 07:33S 12°30' E 130°53'0 0.0
2015-May-22 06:33S 12°30' E 130°53'0 0.0
2015-May-22 05:33S 12°30' E 130°53'0 0.0
2015-May-22 04:33S 12°30' E 130°53'0 0.0
2015-May-22 03:33S 12°30' E 130°53'0 0.0
2015-May-22 02:33S 12°30' E 130°53'0 0.0
2015-May-22 01:33S 12°30' E 130°53'0 0.0
2015-May-22 00:33S 12°30' E 130°53'0 0.0
2015-May-21 23:33S 12°30' E 130°53'0 0.0
2015-May-21 22:33S 12°30' E 130°53'3 2.7
2015-May-21 21:33S 12°29' E 130°50'8 8.1
2015-May-21 20:33S 12°23' E 130°45'5 5.5
2015-May-21 19:33S 12°19' E 130°40'  

Dump ship's entire track history